createdAt,value
2017-04-16T00:00:39.912Z,1007.2
2017-04-16T00:01:49.835Z,1007.21
2017-04-16T00:03:00.073Z,1007.22
2017-04-16T00:04:09.999Z,1007.26
2017-04-16T00:05:19.923Z,1007.29
2017-04-16T00:06:30.181Z,1007.2
2017-04-16T00:07:40.419Z,1007.19
2017-04-16T00:08:50.347Z,1007.19
2017-04-16T00:10:00.279Z,1007.27
2017-04-16T00:11:10.216Z,1007.18
2017-04-16T00:12:20.459Z,1007.17
2017-04-16T00:13:30.388Z,1007.13
2017-04-16T00:14:40.320Z,1007.18
2017-04-16T00:15:50.702Z,1007.15
2017-04-16T00:17:01.019Z,1007.13
2017-04-16T00:18:11.258Z,1007.23
2017-04-16T00:19:21.528Z,1007.18
2017-04-16T00:20:31.761Z,1007.19
2017-04-16T00:21:41.682Z,1007.24
2017-04-16T00:22:51.914Z,1007.23
2017-04-16T00:24:01.846Z,1007.11
2017-04-16T00:25:11.780Z,1007.22
2017-04-16T00:26:22.030Z,1007.27
2017-04-16T00:27:31.954Z,1007.25
2017-04-16T00:28:42.204Z,1007.27
2017-04-16T00:29:52.441Z,1007.25
2017-04-16T00:31:02.679Z,1007.25
2017-04-16T00:32:12.921Z,1007.3
2017-04-16T00:33:22.883Z,1007.15
2017-04-16T00:34:32.812Z,1007.22
2017-04-16T00:35:42.736Z,1007.14
2017-04-16T00:36:52.661Z,1007.2
2017-04-16T00:38:02.902Z,1007.32
2017-04-16T00:39:12.518Z,1007.23
2017-04-16T00:40:22.760Z,1007.18
2017-04-16T00:41:32.682Z,1007.23
2017-04-16T00:42:42.917Z,1007.23
2017-04-16T00:43:53.160Z,1007.22
2017-04-16T00:45:03.414Z,1007.26
2017-04-16T00:46:13.824Z,1007.23
2017-04-16T00:47:24.064Z,1007.26
2017-04-16T00:48:34.302Z,1007.23
2017-04-16T00:49:44.545Z,1007.28
2017-04-16T00:50:54.779Z,1007.27
2017-04-16T00:52:04.708Z,1007.29
2017-04-16T00:53:14.945Z,1007.29
2017-04-16T00:54:25.197Z,1007.27
2017-04-16T00:55:34.529Z,1007.27
2017-04-16T00:56:44.465Z,1007.31
2017-04-16T00:57:54.389Z,1007.26
2017-04-16T00:59:04.009Z,1007.31
2017-04-16T01:00:14.248Z,1007.28
2017-04-16T01:01:24.483Z,1007.26
2017-04-16T01:02:34.721Z,1007.27
2017-04-16T01:03:44.657Z,1007.3
2017-04-16T01:04:54.902Z,1007.32
2017-04-16T01:06:05.141Z,1007.28
2017-04-16T01:07:15.076Z,1007.3
2017-04-16T01:08:25.043Z,1007.35
2017-04-16T01:09:34.968Z,1007.3
2017-04-16T01:10:44.892Z,1007.3
2017-04-16T01:11:55.137Z,1007.26
2017-04-16T01:13:05.070Z,1007.31
2017-04-16T01:14:15.312Z,1007.31
2017-04-16T01:15:25.720Z,1007.27
2017-04-16T01:16:35.659Z,1007.28
2017-04-16T01:17:46.019Z,1007.32
2017-04-16T01:18:55.958Z,1007.34
2017-04-16T01:20:05.888Z,1007.42
2017-04-16T01:21:16.129Z,1007.34
2017-04-16T01:22:26.363Z,1007.27
2017-04-16T01:23:36.625Z,1007.4
2017-04-16T01:24:46.547Z,1007.43
2017-04-16T01:25:56.162Z,1007.35
2017-04-16T01:27:06.399Z,1007.39
2017-04-16T01:28:16.642Z,1007.38
2017-04-16T01:29:26.874Z,1007.43
2017-04-16T01:30:36.799Z,1007.42
2017-04-16T01:31:46.730Z,1007.43
2017-04-16T01:32:56.345Z,1007.44
2017-04-16T01:34:06.598Z,1007.42
2017-04-16T01:35:16.843Z,1007.48
2017-04-16T01:36:27.081Z,1007.42
2017-04-16T01:37:37.005Z,1007.38
2017-04-16T01:38:47.243Z,1007.45
2017-04-16T01:39:57.483Z,1007.49
2017-04-16T01:41:07.763Z,1007.44
2017-04-16T01:42:17.693Z,1007.41
2017-04-16T01:43:27.941Z,1007.43
2017-04-16T01:44:37.558Z,1007.41
2017-04-16T01:45:47.495Z,1007.43
2017-04-16T01:46:57.739Z,1007.42
2017-04-16T01:48:07.670Z,1007.37
2017-04-16T01:49:17.914Z,1007.42
2017-04-16T01:50:28.154Z,1007.44
2017-04-16T01:51:38.396Z,1007.44
2017-04-16T01:52:48.324Z,1007.46
2017-04-16T01:53:58.259Z,1007.42
2017-04-16T01:55:08.501Z,1007.39
2017-04-16T01:56:18.431Z,1007.47
2017-04-16T01:57:28.052Z,1007.35
2017-04-16T01:58:37.985Z,1007.41
2017-04-16T01:59:48.237Z,1007.42
2017-04-16T02:00:58.171Z,1007.44
2017-04-16T02:02:08.410Z,1007.49
2017-04-16T02:03:18.650Z,1007.43
2017-04-16T02:04:28.893Z,1007.46
2017-04-16T02:05:38.509Z,1007.46
2017-04-16T02:06:48.119Z,1007.51
2017-04-16T02:07:58.355Z,1007.44
2017-04-16T02:09:08.607Z,1007.51
2017-04-16T02:10:18.216Z,1007.45
2017-04-16T02:11:27.831Z,1007.52
2017-04-16T02:12:37.775Z,1007.48
2017-04-16T02:13:48.038Z,1007.48
2017-04-16T02:14:58.289Z,1007.5
2017-04-16T02:16:08.211Z,1007.49
2017-04-16T02:17:18.479Z,1007.42
2017-04-16T02:18:28.718Z,1007.48
2017-04-16T02:19:38.649Z,1007.46
2017-04-16T02:20:48.572Z,1007.44
2017-04-16T02:21:58.812Z,1007.48
2017-04-16T02:23:08.759Z,1007.59
2017-04-16T02:24:18.692Z,1007.47
2017-04-16T02:25:28.613Z,1007.48
2017-04-16T02:26:38.535Z,1007.51
2017-04-16T02:27:48.770Z,1007.45
2017-04-16T02:28:59.023Z,1007.46
2017-04-16T02:30:09.264Z,1007.5
2017-04-16T02:31:19.500Z,1007.45
2017-04-16T02:32:29.732Z,1007.48
2017-04-16T02:33:39.971Z,1007.54
2017-04-16T02:34:50.215Z,1007.48
2017-04-16T02:36:00.460Z,1007.55
2017-04-16T02:37:10.701Z,1007.44
2017-04-16T02:38:20.316Z,1007.49
2017-04-16T02:39:30.564Z,1007.42
2017-04-16T02:40:40.573Z,1007.42
2017-04-16T02:41:50.818Z,1007.48
2017-04-16T02:43:01.055Z,1007.37
2017-04-16T02:44:11.298Z,1007.44
2017-04-16T02:45:21.546Z,1007.42
2017-04-16T02:46:31.471Z,1007.43
2017-04-16T02:47:41.705Z,1007.4
2017-04-16T02:48:51.942Z,1007.43
2017-04-16T02:50:02.178Z,1007.35
2017-04-16T02:51:12.110Z,1007.36
2017-04-16T02:52:22.025Z,1007.37
2017-04-16T02:53:31.640Z,1007.36
2017-04-16T02:54:41.887Z,1007.46
2017-04-16T02:55:51.818Z,1007.41
2017-04-16T02:57:02.051Z,1007.45
2017-04-16T02:58:12.287Z,1007.41
2017-04-16T02:59:22.216Z,1007.39
2017-04-16T03:00:32.464Z,1007.4
2017-04-16T03:01:42.705Z,1007.43
2017-04-16T03:02:52.627Z,1007.5
2017-04-16T03:04:02.872Z,1007.39
2017-04-16T03:05:12.802Z,1007.41
2017-04-16T03:06:22.735Z,1007.39
2017-04-16T03:07:32.664Z,1007.42
2017-04-16T03:08:42.910Z,1007.45
2017-04-16T03:09:53.156Z,1007.44
2017-04-16T03:11:03.077Z,1007.36
2017-04-16T03:12:13.311Z,1007.43
2017-04-16T03:13:23.551Z,1007.36
2017-04-16T03:14:33.171Z,1007.37
2017-04-16T03:15:42.782Z,1007.39
2017-04-16T03:16:53.025Z,1007.33
2017-04-16T03:18:03.273Z,1007.35
2017-04-16T03:19:13.634Z,1007.32
2017-04-16T03:20:23.611Z,1007.35
2017-04-16T03:21:33.538Z,1007.31
2017-04-16T03:22:43.784Z,1007.31
2017-04-16T03:23:54.029Z,1007.3
2017-04-16T03:25:04.267Z,1007.32
2017-04-16T03:26:14.506Z,1007.27
2017-04-16T03:27:24.751Z,1007.27
2017-04-16T03:28:34.988Z,1007.24
2017-04-16T03:29:44.915Z,1007.29
2017-04-16T03:30:55.157Z,1007.36
2017-04-16T03:32:05.409Z,1007.3
2017-04-16T03:33:15.337Z,1007.29
2017-04-16T03:34:25.581Z,1007.27
2017-04-16T03:35:35.854Z,1007.28
2017-04-16T03:36:45.472Z,1007.34
2017-04-16T03:37:55.714Z,1007.33
2017-04-16T03:39:05.951Z,1007.32
2017-04-16T03:40:15.882Z,1007.23
2017-04-16T03:41:25.800Z,1007.31
2017-04-16T03:42:36.072Z,1007.3
2017-04-16T03:43:46.325Z,1007.27
2017-04-16T03:44:56.571Z,1007.27
2017-04-16T03:46:06.493Z,1007.25
2017-04-16T03:47:16.734Z,1007.25
2017-04-16T03:48:27.007Z,1007.23
2017-04-16T03:49:37.250Z,1007.25
2017-04-16T03:50:47.408Z,1007.25
2017-04-16T03:51:57.664Z,1007.22
2017-04-16T03:53:07.910Z,1007.26
2017-04-16T03:54:18.158Z,1007.28
2017-04-16T03:55:28.410Z,1007.23
2017-04-16T03:56:38.342Z,1007.32
2017-04-16T03:57:48.281Z,1007.31
2017-04-16T03:58:58.523Z,1007.27
2017-04-16T04:00:08.452Z,1007.31
2017-04-16T04:01:18.699Z,1007.25
2017-04-16T04:02:28.940Z,1007.36
2017-04-16T04:03:39.182Z,1007.28
2017-04-16T04:04:49.455Z,1007.35
2017-04-16T04:05:59.407Z,1007.3
2017-04-16T04:07:09.643Z,1007.39
2017-04-16T04:08:19.570Z,1007.34
2017-04-16T04:09:29.819Z,1007.39
2017-04-16T04:10:39.746Z,1007.41
2017-04-16T04:11:49.992Z,1007.38
2017-04-16T04:13:00.244Z,1007.38
2017-04-16T04:14:10.494Z,1007.49
2017-04-16T04:15:20.745Z,1007.39
2017-04-16T04:16:30.983Z,1007.42
2017-04-16T04:17:41.226Z,1007.41
2017-04-16T04:18:50.843Z,1007.41
2017-04-16T04:20:00.823Z,1007.38
2017-04-16T04:21:10.798Z,1007.42
2017-04-16T04:22:20.728Z,1007.45
2017-04-16T04:23:31.019Z,1007.44
2017-04-16T04:24:41.324Z,1007.46
2017-04-16T04:25:51.249Z,1007.46
2017-04-16T04:27:01.295Z,1007.45
2017-04-16T04:28:11.218Z,1007.51
2017-04-16T04:29:21.452Z,1007.48
2017-04-16T04:30:31.378Z,1007.46
2017-04-16T04:31:41.001Z,1007.47
2017-04-16T04:32:50.928Z,1007.5
2017-04-16T04:34:01.174Z,1007.59
2017-04-16T04:35:11.422Z,1007.48
2017-04-16T04:36:21.662Z,1007.61
2017-04-16T04:37:31.897Z,1007.47
2017-04-16T04:38:42.139Z,1007.52
2017-04-16T04:39:52.380Z,1007.48
2017-04-16T04:41:02.340Z,1007.47
2017-04-16T04:42:12.262Z,1007.53
2017-04-16T04:43:22.190Z,1007.57
2017-04-16T04:44:32.128Z,1007.51
2017-04-16T04:45:42.365Z,1007.46
2017-04-16T04:46:52.294Z,1007.53
2017-04-16T04:48:02.537Z,1007.5
2017-04-16T04:49:12.462Z,1007.5
2017-04-16T04:50:22.394Z,1007.54
2017-04-16T04:51:32.629Z,1007.51
2017-04-16T04:52:42.574Z,1007.49
2017-04-16T04:53:52.818Z,1007.49
2017-04-16T04:55:03.060Z,1007.57
2017-04-16T04:56:13.309Z,1007.56
2017-04-16T04:57:23.334Z,1007.55
2017-04-16T04:58:33.577Z,1007.57
2017-04-16T04:59:43.506Z,1007.58
2017-04-16T05:00:53.768Z,1007.58
2017-04-16T05:02:03.726Z,1007.57
2017-04-16T05:03:13.652Z,1007.59
2017-04-16T05:04:23.267Z,1007.59
2017-04-16T05:05:33.202Z,1007.6
2017-04-16T05:06:42.810Z,1007.63
2017-04-16T05:07:52.753Z,1007.59
2017-04-16T05:09:02.997Z,1007.62
2017-04-16T05:10:13.237Z,1007.79
2017-04-16T05:11:23.479Z,1007.64
2017-04-16T05:12:33.405Z,1007.56
2017-04-16T05:13:43.028Z,1007.64
2017-04-16T05:14:52.953Z,1007.64
2017-04-16T05:16:02.881Z,1007.6
2017-04-16T05:17:12.811Z,1007.65
2017-04-16T05:18:22.424Z,1007.73
2017-04-16T05:19:32.668Z,1007.69
2017-04-16T05:20:42.918Z,1007.75
2017-04-16T05:21:52.533Z,1007.74
2017-04-16T05:23:02.790Z,1007.8
2017-04-16T05:24:12.408Z,1007.67
2017-04-16T05:25:22.687Z,1007.82
2017-04-16T05:26:32.924Z,1007.81
2017-04-16T05:27:42.854Z,1007.82
2017-04-16T05:28:53.093Z,1007.77
2017-04-16T05:30:03.024Z,1007.83
2017-04-16T05:31:12.688Z,1007.87
2017-04-16T05:32:22.928Z,1007.89
2017-04-16T05:33:32.865Z,1007.87
2017-04-16T05:34:42.999Z,1007.86
2017-04-16T05:35:52.927Z,1007.88
2017-04-16T05:37:03.030Z,1007.85
2017-04-16T05:38:12.954Z,1007.8
2017-04-16T05:39:23.227Z,1007.81
2017-04-16T05:40:33.469Z,1007.98
2017-04-16T05:41:43.396Z,1007.91
2017-04-16T05:42:53.325Z,1007.84
2017-04-16T05:44:02.943Z,1007.89
2017-04-16T05:45:13.194Z,1007.87
2017-04-16T05:46:23.449Z,1007.82
2017-04-16T05:47:33.380Z,1007.94
2017-04-16T05:48:43.304Z,1007.89
2017-04-16T05:49:53.241Z,1007.92
2017-04-16T05:51:03.492Z,1007.91
2017-04-16T05:52:13.732Z,1007.93
2017-04-16T05:53:23.677Z,1007.95
2017-04-16T05:54:33.918Z,1007.91
2017-04-16T05:55:44.156Z,1007.92
2017-04-16T05:56:54.079Z,1007.97
2017-04-16T05:58:04.319Z,1008.01
2017-04-16T05:59:14.564Z,1008.02
2017-04-16T06:00:24.812Z,1008.02
2017-04-16T06:01:35.051Z,1007.94
2017-04-16T06:02:45.294Z,1007.97
2017-04-16T06:03:55.535Z,1008.14
2017-04-16T06:05:05.773Z,1008.08
2017-04-16T06:06:16.013Z,1008.04
2017-04-16T06:07:26.250Z,1008.07
2017-04-16T06:08:36.173Z,1008.11
2017-04-16T06:09:46.462Z,1008.03
2017-04-16T06:10:56.937Z,1008.07
2017-04-16T06:12:06.640Z,1008.04
2017-04-16T06:13:16.635Z,1008.13
2017-04-16T06:14:26.877Z,1008.04
2017-04-16T06:15:37.121Z,1008.09
2017-04-16T06:17:19.119Z,1008.11
2017-04-16T06:18:28.731Z,1008.15
2017-04-16T06:19:38.349Z,1008.18
2017-04-16T06:20:48.593Z,1008.16
2017-04-16T06:21:58.828Z,1008.23
2017-04-16T06:23:08.760Z,1008.19
2017-04-16T06:24:19.011Z,1008.22
2017-04-16T06:25:29.255Z,1008.19
2017-04-16T06:26:39.194Z,1008.27
2017-04-16T06:27:49.184Z,1008.21
2017-04-16T06:28:59.607Z,1008.25
2017-04-16T06:30:09.859Z,1008.21
2017-04-16T06:31:19.793Z,1008.27
2017-04-16T06:32:30.067Z,1008.3
2017-04-16T06:33:40.005Z,1008.35
2017-04-16T06:34:49.944Z,1008.41
2017-04-16T06:36:00.172Z,1008.35
2017-04-16T06:37:10.470Z,1008.41
2017-04-16T06:38:20.627Z,1008.43
2017-04-16T06:39:30.392Z,1008.39
2017-04-16T06:40:40.040Z,1008.46
2017-04-16T06:41:50.298Z,1008.46
2017-04-16T06:43:00.574Z,1008.55
2017-04-16T06:44:10.506Z,1008.57
2017-04-16T06:45:20.752Z,1008.53
2017-04-16T06:46:30.994Z,1008.46
2017-04-16T06:47:41.250Z,1008.53
2017-04-16T06:48:51.496Z,1008.49
2017-04-16T06:50:01.460Z,1008.6
2017-04-16T06:51:11.085Z,1008.56
2017-04-16T06:52:21.327Z,1008.55
2017-04-16T06:53:31.258Z,1008.58
2017-04-16T06:54:41.234Z,1008.49
2017-04-16T06:55:51.163Z,1008.6
2017-04-16T06:57:01.405Z,1008.56
2017-04-16T06:58:11.334Z,1008.64
2017-04-16T06:59:21.574Z,1008.6
2017-04-16T07:00:31.826Z,1008.59
2017-04-16T07:01:42.074Z,1008.7
2017-04-16T07:02:52.318Z,1008.66
2017-04-16T07:04:01.934Z,1008.67
2017-04-16T07:05:11.866Z,1008.62
2017-04-16T07:06:21.795Z,1008.61
2017-04-16T07:07:31.720Z,1008.66
2017-04-16T07:08:41.679Z,1008.71
2017-04-16T07:09:51.950Z,1008.69
2017-04-16T07:11:01.876Z,1008.66
2017-04-16T07:12:11.174Z,1008.76
2017-04-16T07:13:21.109Z,1008.64
2017-04-16T07:14:31.343Z,1008.72
2017-04-16T07:15:41.268Z,1008.72
2017-04-16T07:16:51.518Z,1008.8
2017-04-16T07:18:01.454Z,1008.73
2017-04-16T07:19:11.386Z,1008.81
2017-04-16T07:20:21.629Z,1008.77
2017-04-16T07:21:31.553Z,1008.86
2017-04-16T07:22:41.579Z,1008.98
2017-04-16T07:23:51.819Z,1008.88
2017-04-16T07:25:01.433Z,1008.88
2017-04-16T07:26:11.673Z,1009.03
2017-04-16T07:27:21.917Z,1008.98
2017-04-16T07:28:32.163Z,1008.99
2017-04-16T07:29:42.411Z,1008.98
2017-04-16T07:30:52.656Z,1009.01
2017-04-16T07:32:02.581Z,1009.03
2017-04-16T07:33:12.823Z,1008.98
2017-04-16T07:34:23.075Z,1008.95
2017-04-16T07:35:33.313Z,1009
2017-04-16T07:36:43.244Z,1008.99
2017-04-16T07:37:53.484Z,1009.05
2017-04-16T07:39:03.732Z,1009.04
2017-04-16T07:40:13.661Z,1009.04
2017-04-16T07:41:23.894Z,1009.1
2017-04-16T07:42:34.141Z,1009.13
2017-04-16T07:43:44.073Z,1009.03
2017-04-16T07:44:54.320Z,1009.15
2017-04-16T07:46:03.623Z,1009.2
2017-04-16T07:47:13.866Z,1009.17
2017-04-16T07:48:24.113Z,1009.36
2017-04-16T07:49:34.034Z,1009.14
2017-04-16T07:50:44.273Z,1009.15
2017-04-16T07:51:54.205Z,1009.14
2017-04-16T07:53:04.439Z,1009.21
2017-04-16T07:54:14.368Z,1009.2
2017-04-16T07:55:24.610Z,1009.18
2017-04-16T07:56:34.537Z,1009.22
2017-04-16T07:57:44.460Z,1009.19
2017-04-16T07:58:54.079Z,1009.22
2017-04-16T08:00:04.376Z,1009.26
2017-04-16T08:01:14.110Z,1009.29
2017-04-16T08:02:24.213Z,1009.3
2017-04-16T08:03:34.527Z,1009.33
2017-04-16T08:04:44.782Z,1009.36
2017-04-16T08:05:55.038Z,1009.3
2017-04-16T08:07:04.963Z,1009.29
2017-04-16T08:08:15.209Z,1009.3
2017-04-16T08:09:25.443Z,1009.32
2017-04-16T08:10:35.362Z,1009.34
2017-04-16T08:11:44.975Z,1009.3
2017-04-16T08:12:55.220Z,1009.35
2017-04-16T08:14:05.466Z,1009.33
2017-04-16T08:15:15.709Z,1009.24
2017-04-16T08:16:25.953Z,1009.4
2017-04-16T08:17:35.589Z,1009.34
2017-04-16T08:18:45.522Z,1009.43
2017-04-16T08:19:55.449Z,1009.36
2017-04-16T08:21:05.380Z,1009.39
2017-04-16T08:22:15.613Z,1009.42
2017-04-16T08:23:25.852Z,1009.35
2017-04-16T08:24:36.104Z,1009.45
2017-04-16T08:25:46.339Z,1009.37
2017-04-16T08:26:56.575Z,1009.41
2017-04-16T08:28:06.814Z,1009.4
2017-04-16T08:29:16.467Z,1009.41
2017-04-16T08:30:26.709Z,1009.48
2017-04-16T08:31:36.642Z,1009.42
2017-04-16T08:32:46.261Z,1009.47
2017-04-16T08:33:56.513Z,1009.48
2017-04-16T08:35:06.451Z,1009.62
2017-04-16T08:36:16.379Z,1009.59
2017-04-16T08:37:26.626Z,1009.6
2017-04-16T08:38:36.869Z,1009.62
2017-04-16T08:39:46.797Z,1009.65
2017-04-16T08:40:56.940Z,1009.67
2017-04-16T08:42:07.195Z,1009.67
2017-04-16T08:43:17.240Z,1009.69
2017-04-16T08:44:26.859Z,1009.75
2017-04-16T08:45:36.784Z,1009.64
2017-04-16T08:46:46.723Z,1009.73
2017-04-16T08:47:56.762Z,1009.67
2017-04-16T08:49:07.034Z,1009.82
2017-04-16T08:50:17.277Z,1009.7
2017-04-16T08:51:27.620Z,1009.74
2017-04-16T08:52:37.858Z,1009.82
2017-04-16T08:53:48.103Z,1009.85
2017-04-16T08:54:58.350Z,1009.8
2017-04-16T08:56:08.281Z,1009.81
2017-04-16T08:57:18.204Z,1009.92
2017-04-16T08:58:28.454Z,1009.87
2017-04-16T08:59:38.387Z,1009.81
2017-04-16T09:00:48.638Z,1009.79
2017-04-16T09:01:58.884Z,1009.85
2017-04-16T09:03:08.505Z,1009.88
2017-04-16T09:04:18.750Z,1009.81
2017-04-16T09:05:28.993Z,1009.88
2017-04-16T09:06:39.233Z,1009.86
2017-04-16T09:07:49.478Z,1009.88
2017-04-16T09:08:59.725Z,1009.83
2017-04-16T09:10:09.647Z,1009.86
2017-04-16T09:11:19.579Z,1009.88
2017-04-16T09:12:29.192Z,1009.81
2017-04-16T09:13:39.120Z,1009.92
2017-04-16T09:14:49.361Z,1009.88
2017-04-16T09:15:58.976Z,1009.95
2017-04-16T09:17:09.216Z,1009.88
2017-04-16T09:18:19.142Z,1009.94
2017-04-16T09:19:29.107Z,1009.87
2017-04-16T09:20:39.067Z,1009.89
2017-04-16T09:21:48.992Z,1009.9
2017-04-16T09:22:58.297Z,1009.86
2017-04-16T09:24:08.318Z,1009.89
2017-04-16T09:25:18.613Z,1009.84
2017-04-16T09:26:28.596Z,1009.88
2017-04-16T09:27:38.205Z,1009.89
2017-04-16T09:28:48.455Z,1009.92
2017-04-16T09:29:58.389Z,1009.88
2017-04-16T09:31:07.691Z,1009.94
2017-04-16T09:32:17.930Z,1009.97
2017-04-16T09:33:27.862Z,1009.96
2017-04-16T09:34:37.803Z,1009.93
2017-04-16T09:35:47.725Z,1009.98
2017-04-16T09:36:57.971Z,1010
2017-04-16T09:38:07.899Z,1009.98
2017-04-16T09:39:18.141Z,1009.95
2017-04-16T09:40:28.072Z,1009.99
2017-04-16T09:41:37.998Z,1009.92
2017-04-16T09:42:48.240Z,1009.87
2017-04-16T09:43:58.480Z,1009.96
2017-04-16T09:45:08.725Z,1010.03
2017-04-16T09:46:18.656Z,1009.96
2017-04-16T09:47:28.588Z,1010.02
2017-04-16T09:48:38.834Z,1010.01
2017-04-16T09:49:49.081Z,1009.92
2017-04-16T09:50:59.339Z,1009.95
2017-04-16T09:52:09.576Z,1009.98
2017-04-16T09:53:19.635Z,1009.95
2017-04-16T09:54:30.175Z,1009.99
2017-04-16T09:55:41.351Z,1010.04
2017-04-16T09:56:52.779Z,1009.95
2017-04-16T09:58:03.959Z,1009.95
2017-04-16T09:59:14.766Z,1009.94
2017-04-16T10:00:26.102Z,1009.95
2017-04-16T10:01:36.543Z,1009.97
2017-04-16T10:02:47.721Z,1010.04
2017-04-16T10:03:58.539Z,1010.13
2017-04-16T10:05:09.752Z,1010.09
2017-04-16T10:06:20.665Z,1010.12
2017-04-16T10:07:31.282Z,1010.12
2017-04-16T10:08:42.114Z,1010.17
2017-04-16T10:09:53.318Z,1010.16
2017-04-16T10:11:04.233Z,1010.17
2017-04-16T10:12:15.880Z,1010.17
2017-04-16T10:13:27.077Z,1010.24
2017-04-16T10:14:37.533Z,1010.22
2017-04-16T10:15:48.729Z,1010.28
2017-04-16T10:16:59.181Z,1010.34
2017-04-16T10:18:10.071Z,1010.34
2017-04-16T10:19:21.878Z,1010.31
2017-04-16T10:20:32.319Z,1010.39
2017-04-16T10:21:43.505Z,1010.39
2017-04-16T10:22:54.612Z,1010.38
2017-04-16T10:24:05.924Z,1010.41
2017-04-16T10:25:16.326Z,1010.42
2017-04-16T10:26:27.017Z,1010.41
2017-04-16T10:27:37.577Z,1010.38
2017-04-16T10:28:48.536Z,1010.34
2017-04-16T10:29:59.181Z,1010.38
2017-04-16T10:31:10.192Z,1010.34
2017-04-16T10:32:20.817Z,1010.41
2017-04-16T10:33:31.491Z,1010.39
2017-04-16T10:34:42.189Z,1010.39
2017-04-16T10:35:52.819Z,1010.43
2017-04-16T10:37:03.273Z,1010.41
2017-04-16T10:38:13.723Z,1010.39
2017-04-16T10:39:24.542Z,1010.42
2017-04-16T10:40:35.330Z,1010.4
2017-04-16T10:41:45.179Z,1010.45
2017-04-16T10:42:55.661Z,1010.45
2017-04-16T10:44:05.596Z,1010.45
2017-04-16T10:45:15.528Z,1010.48
2017-04-16T10:46:25.455Z,1010.44
2017-04-16T10:47:35.070Z,1010.49
2017-04-16T10:48:45.310Z,1010.5
2017-04-16T10:49:55.558Z,1010.45
2017-04-16T10:51:05.812Z,1010.48
2017-04-16T10:52:15.734Z,1010.48
2017-04-16T10:53:26.002Z,1010.45
2017-04-16T10:54:36.272Z,1010.49
2017-04-16T10:55:46.196Z,1010.5
2017-04-16T10:56:56.449Z,1010.55
2017-04-16T10:58:06.391Z,1010.55
2017-04-16T10:59:16.653Z,1010.54
2017-04-16T11:00:26.586Z,1010.59
2017-04-16T11:01:36.835Z,1010.6
2017-04-16T11:02:47.087Z,1010.62
2017-04-16T11:03:57.344Z,1010.61
2017-04-16T11:05:07.585Z,1010.59
2017-04-16T11:06:17.507Z,1010.6
2017-04-16T11:07:27.428Z,1010.6
2017-04-16T11:08:37.669Z,1010.62
2017-04-16T11:09:47.905Z,1010.61
2017-04-16T11:10:57.835Z,1010.6
2017-04-16T11:12:08.081Z,1010.57
2017-04-16T11:13:18.323Z,1010.62
2017-04-16T11:14:28.251Z,1010.62
2017-04-16T11:15:38.179Z,1010.57
2017-04-16T11:16:48.424Z,1010.59
2017-04-16T11:17:58.675Z,1010.56
2017-04-16T11:19:08.615Z,1010.6
2017-04-16T11:20:18.538Z,1010.58
2017-04-16T11:21:28.490Z,1010.59
2017-04-16T11:22:38.733Z,1010.59
2017-04-16T11:23:48.991Z,1010.56
2017-04-16T11:24:59.345Z,1010.59
2017-04-16T11:26:09.594Z,1010.58
2017-04-16T11:27:19.839Z,1010.6
2017-04-16T11:28:30.080Z,1010.64
2017-04-16T11:29:39.701Z,1010.64
2017-04-16T11:30:50.334Z,1010.65
2017-04-16T11:32:00.591Z,1010.62
2017-04-16T11:33:10.848Z,1010.63
2017-04-16T11:34:21.089Z,1010.62
2017-04-16T11:35:31.374Z,1010.68
2017-04-16T11:36:41.295Z,1010.84
2017-04-16T11:37:51.220Z,1010.84
2017-04-16T11:39:01.152Z,1011
2017-04-16T11:40:11.110Z,1011.06
2017-04-16T11:41:21.348Z,1011.06
2017-04-16T11:42:31.273Z,1011.05
2017-04-16T11:43:41.525Z,1011.13
2017-04-16T11:44:51.769Z,1011.12
2017-04-16T11:46:01.701Z,1011.1
2017-04-16T11:47:11.644Z,1011.09
2017-04-16T11:48:21.888Z,1011.08
2017-04-16T11:49:31.823Z,1011.15
2017-04-16T11:50:41.434Z,1011.13
2017-04-16T11:51:51.360Z,1011.12
2017-04-16T11:53:01.294Z,1011.15
2017-04-16T11:54:11.537Z,1011.13
2017-04-16T11:55:21.773Z,1011.15
2017-04-16T11:56:31.728Z,1011.16
2017-04-16T11:57:41.972Z,1011.13
2017-04-16T11:58:51.287Z,1011.15
2017-04-16T12:00:01.540Z,1011.16
2017-04-16T12:01:11.481Z,1011.13
2017-04-16T12:02:21.094Z,1011.17
2017-04-16T12:03:30.830Z,1011.17
2017-04-16T12:04:41.293Z,1011.16
2017-04-16T12:05:51.541Z,1011.11
2017-04-16T12:07:01.475Z,1011.18
2017-04-16T12:08:11.407Z,1011.18
2017-04-16T12:09:21.648Z,1011.14
2017-04-16T12:10:31.261Z,1011.18
2017-04-16T12:11:41.186Z,1011.2
2017-04-16T12:12:51.119Z,1011.18
2017-04-16T12:14:01.050Z,1011.17
2017-04-16T12:15:10.977Z,1011.2
2017-04-16T12:16:20.900Z,1011.22
2017-04-16T12:17:30.517Z,1011.23
2017-04-16T12:18:40.445Z,1011.24
2017-04-16T12:19:50.386Z,1011.23
2017-04-16T12:21:00.630Z,1011.24
2017-04-16T12:22:10.244Z,1011.27
2017-04-16T12:23:20.496Z,1011.21
2017-04-16T12:24:30.421Z,1011.23
2017-04-16T12:25:40.659Z,1011.19
2017-04-16T12:26:50.902Z,1011.19
2017-04-16T12:28:01.145Z,1011.21
2017-04-16T12:29:11.384Z,1011.18
2017-04-16T12:30:21.315Z,1011.2
2017-04-16T12:31:31.551Z,1011.2
2017-04-16T12:32:41.484Z,1011.19
2017-04-16T12:33:51.742Z,1011.19
2017-04-16T12:35:01.988Z,1011.23
2017-04-16T12:36:11.921Z,1011.26
2017-04-16T12:37:22.169Z,1011.34
2017-04-16T12:38:32.407Z,1011.29
2017-04-16T12:39:42.690Z,1011.3
2017-04-16T12:40:52.625Z,1011.36
2017-04-16T12:42:02.965Z,1011.31
2017-04-16T12:43:12.891Z,1011.33
2017-04-16T12:44:22.833Z,1011.37
2017-04-16T12:45:33.072Z,1011.34
2017-04-16T12:46:43.320Z,1011.32
2017-04-16T12:47:52.937Z,1011.35
2017-04-16T12:49:02.875Z,1011.37
2017-04-16T12:50:12.806Z,1011.4
2017-04-16T12:51:22.733Z,1011.41
2017-04-16T12:52:32.981Z,1011.36
2017-04-16T12:53:42.917Z,1011.35
2017-04-16T12:54:52.852Z,1011.36
2017-04-16T12:56:02.779Z,1011.34
2017-04-16T12:57:13.014Z,1011.34
2017-04-16T12:58:23.261Z,1011.35
2017-04-16T12:59:33.208Z,1011.34
2017-04-16T13:00:42.826Z,1011.35
2017-04-16T13:01:52.760Z,1011.35
2017-04-16T13:03:02.376Z,1011.33
2017-04-16T13:04:12.308Z,1011.33
2017-04-16T13:05:22.557Z,1011.32
2017-04-16T13:06:32.810Z,1011.32
2017-04-16T13:07:42.754Z,1011.3
2017-04-16T13:08:52.688Z,1011.31
2017-04-16T13:10:02.933Z,1011.28
2017-04-16T13:11:13.167Z,1011.31
2017-04-16T13:12:23.407Z,1011.31
2017-04-16T13:13:33.714Z,1011.3
2017-04-16T13:14:43.720Z,1011.24
2017-04-16T13:15:53.960Z,1011.28
2017-04-16T13:17:04.197Z,1011.28
2017-04-16T13:18:13.817Z,1011.25
2017-04-16T13:19:24.052Z,1011.26
2017-04-16T13:20:33.986Z,1011.31
2017-04-16T13:21:44.224Z,1011.27
2017-04-16T13:22:54.465Z,1011.27
2017-04-16T13:24:04.722Z,1011.25
2017-04-16T13:25:14.659Z,1011.29
2017-04-16T13:26:24.590Z,1011.26
2017-04-16T13:27:34.519Z,1011.29
2017-04-16T13:28:44.763Z,1011.32
2017-04-16T13:29:54.693Z,1011.34
2017-04-16T13:31:04.940Z,1011.36
2017-04-16T13:32:15.172Z,1011.42
2017-04-16T13:33:25.411Z,1011.45
2017-04-16T13:34:35.661Z,1011.5
2017-04-16T13:35:45.593Z,1011.47
2017-04-16T13:36:55.840Z,1011.51
2017-04-16T13:38:06.097Z,1011.54
2017-04-16T13:39:16.344Z,1011.57
2017-04-16T13:40:26.586Z,1011.6
2017-04-16T13:41:36.510Z,1011.62
2017-04-16T13:42:46.443Z,1011.59
2017-04-16T13:43:56.378Z,1011.59
2017-04-16T13:45:06.307Z,1011.61
2017-04-16T13:46:16.235Z,1011.59
2017-04-16T13:47:26.470Z,1011.56
2017-04-16T13:48:36.726Z,1011.59
2017-04-16T13:49:47.125Z,1011.63
2017-04-16T13:50:57.252Z,1011.57
2017-04-16T13:52:07.494Z,1011.57
2017-04-16T13:53:17.111Z,1011.52
2017-04-16T13:54:27.046Z,1011.45
2017-04-16T13:55:36.978Z,1011.42
2017-04-16T13:56:47.219Z,1011.41
2017-04-16T13:57:57.146Z,1011.48
2017-04-16T13:59:07.073Z,1011.46
2017-04-16T14:00:17.321Z,1011.44
2017-04-16T14:01:27.249Z,1011.46
2017-04-16T14:02:37.485Z,1011.44
2017-04-16T14:03:47.422Z,1011.44
2017-04-16T14:04:57.357Z,1011.44
2017-04-16T14:06:07.600Z,1011.43
2017-04-16T14:07:17.537Z,1011.33
2017-04-16T14:08:27.777Z,1011.34
2017-04-16T14:09:37.704Z,1011.29
2017-04-16T14:10:47.952Z,1011.28
2017-04-16T14:11:57.566Z,1011.3